Time;durP1;ratioP1;P1;durP2;ratioP2;P2;SDS_P1;SDS_P2;PMS_P1;PMS_P2;Temp;Humidity;BMP_temperature;BMP_pressure;BME280_temperature;BME280_humidity;BME280_pressure;Samples;Min_cycle;Max_cycle;Signal;HPM_P1;HPM_P2
2022/01/20 00:01:47;;;;;;;17.25;9.27;;;;;;;;;;5073328;28;20082;-67
2022/01/20 00:04:21;;;;;;;17.10;9.15;;;;;;;;;;5073241;28;20028;-68
2022/01/20 00:28:37;;;;;;;18.60;8.75;;;;;;;;;;5072942;28;20495;-66
2022/01/20 00:34:08;;;;;;;;;;;;;;;;;;5073065;28;20033;-66
2022/01/20 00:39:01;;;;;;;15.38;8.00;;;;;;;;;;5072729;28;20024;-66
2022/01/20 00:41:26;;;;;;;15.52;7.80;;;;;;;;;;5072676;28;20024;-66
2022/01/20 00:43:52;;;;;;;16.98;7.93;;;;;;;;;;5072507;28;20017;-66
2022/01/20 00:46:18;;;;;;;13.95;7.68;;;;;;;;;;5072098;28;20024;-67
2022/01/20 00:48:43;;;;;;;13.65;7.15;;;;;;;;;;5070997;28;20069;-66
2022/01/20 00:51:09;;;;;;;12.98;6.88;;;;;;;;;;5072279;28;20412;-65
2022/01/20 00:53:34;;;;;;;14.48;7.88;;;;;;;;;;5072207;28;20107;-69
2022/01/20 00:56:00;;;;;;;15.73;7.45;;;;;;;;;;5071961;28;20028;-66
2022/01/20 00:58:26;;;;;;;15.00;7.28;;;;;;;;;;5072140;28;20025;-68
2022/01/20 01:00:51;;;;;;;12.07;7.15;;;;;;;;;;5070947;28;20438;-69
2022/01/20 01:03:17;;;;;;;14.00;6.88;;;;;;;;;;5072020;28;20116;-67
2022/01/20 01:06:01;;;;;;;15.75;8.05;;;;;;;;;;5071812;28;20028;-68
2022/01/20 01:08:26;;;;;;;19.83;7.05;;;;;;;;;;5071903;28;20024;-66
2022/01/20 01:10:52;;;;;;;13.85;6.80;;;;;;;;;;5071938;28;20024;-68
2022/01/20 01:13:18;;;;;;;13.32;6.85;;;;;;;;;;5072049;28;20391;-67
2022/01/20 01:15:47;;;;;;;12.65;6.88;;;;;;;;;;5071426;28;20024;-71
2022/01/20 01:23:36;;;;;;;13.00;6.45;;;;;;;;;;5071652;28;20373;-66
2022/01/20 01:26:08;;;;;;;15.70;6.88;;;;;;;;;;5071180;28;20024;-66
2022/01/20 01:28:34;;;;;;;13.73;6.68;;;;;;;;;;5071552;28;20020;-66
2022/01/20 01:34:21;;;;;;;12.23;6.57;;;;;;;;;;5071643;28;20028;-67
2022/01/20 01:37:05;;;;;;;12.13;6.57;;;;;;;;;;5068076;28;20051;-66
2022/01/20 01:39:31;;;;;;;17.02;6.38;;;;;;;;;;5071337;28;20116;-67
2022/01/20 01:41:58;;;;;;;12.27;6.30;;;;;;;;;;5071184;28;20095;-66
2022/01/20 01:44:30;;;;;;;13.52;6.60;;;;;;;;;;5071309;28;20055;-66
2022/01/20 01:46:58;;;;;;;10.23;6.13;;;;;;;;;;5070728;28;20028;-66
2022/01/20 01:49:23;;;;;;;15.85;6.95;;;;;;;;;;5071605;28;20028;-66
2022/01/20 01:51:49;;;;;;;10.18;6.45;;;;;;;;;;5071378;28;20091;-66
2022/01/20 01:54:16;;;;;;;13.30;6.20;;;;;;;;;;5071118;28;20060;-65
2022/01/20 01:56:42;;;;;;;15.27;6.30;;;;;;;;;;5070662;28;20055;-66
2022/01/20 01:59:08;;;;;;;15.45;6.60;;;;;;;;;;5070632;28;20109;-66
2022/01/20 02:01:36;;;;;;;14.68;6.70;;;;;;;;;;5070864;28;20028;-65
2022/01/20 02:04:14;;;;;;;11.02;6.18;;;;;;;;;;5071023;28;20032;-65
2022/01/20 02:19:59;;;;;;;10.38;5.68;;;;;;;;;;5070583;28;20035;-64
2022/01/20 02:22:25;;;;;;;13.93;5.93;;;;;;;;;;5070446;28;20028;-66
2022/01/20 02:24:50;;;;;;;10.95;5.70;;;;;;;;;;5070763;28;20024;-65
2022/01/20 02:27:16;;;;;;;12.77;5.72;;;;;;;;;;5070224;28;20096;-65
2022/01/20 02:29:43;;;;;;;10.05;5.43;;;;;;;;;;5070412;28;20082;-66
2022/01/20 02:32:09;;;;;;;12.82;5.53;;;;;;;;;;5070265;28;20032;-64
2022/01/20 02:34:35;;;;;;;9.48;4.97;;;;;;;;;;5070198;28;20094;-64
2022/01/20 02:37:04;;;;;;;11.15;5.07;;;;;;;;;;5069968;28;20036;-67
2022/01/20 02:44:54;;;;;;;9.32;4.90;;;;;;;;;;5070400;28;20131;-66
2022/01/20 02:47:23;;;;;;;8.52;4.63;;;;;;;;;;5069677;28;20035;-65
2022/01/20 02:49:49;;;;;;;14.45;5.55;;;;;;;;;;5070164;28;20472;-65
2022/01/20 02:52:15;;;;;;;8.68;4.90;;;;;;;;;;5070101;28;20028;-65
2022/01/20 02:54:41;;;;;;;12.48;5.55;;;;;;;;;;5070237;28;20078;-66
2022/01/20 02:57:07;;;;;;;10.60;5.03;;;;;;;;;;5069814;28;20056;-65
2022/01/20 02:59:34;;;;;;;11.90;5.75;;;;;;;;;;5070023;28;20029;-65
2022/01/20 03:02:01;;;;;;;9.95;5.18;;;;;;;;;;5070055;28;20036;-66
2022/01/20 03:04:27;;;;;;;12.85;5.45;;;;;;;;;;5070000;28;20028;-66
2022/01/20 03:06:52;;;;;;;11.35;5.60;;;;;;;;;;5069599;28;20025;-65
2022/01/20 03:09:19;;;;;;;9.02;5.20;;;;;;;;;;5068646;28;20103;-65
2022/01/20 03:11:45;;;;;;;12.13;5.70;;;;;;;;;;5069967;28;20025;-65
2022/01/20 03:14:10;;;;;;;9.05;5.30;;;;;;;;;;5069955;28;20039;-65
2022/01/20 03:16:36;;;;;;;12.52;5.55;;;;;;;;;;5069655;28;20446;-66
2022/01/20 03:19:01;;;;;;;10.18;5.32;;;;;;;;;;5069843;28;20029;-66
2022/01/20 03:21:27;;;;;;;10.23;5.20;;;;;;;;;;5069803;28;20472;-65
2022/01/20 03:23:52;;;;;;;11.38;5.47;;;;;;;;;;5069934;28;20589;-65
2022/01/20 03:26:18;;;;;;;9.40;5.20;;;;;;;;;;5073545;28;20534;-66
2022/01/20 03:28:43;;;;;;;10.23;5.40;;;;;;;;;;5073945;28;20021;-65
2022/01/20 03:31:09;;;;;;;11.80;5.05;;;;;;;;;;5073815;28;20043;-66
2022/01/20 03:33:34;;;;;;;11.68;5.93;;;;;;;;;;5074053;28;20107;-66
2022/01/20 03:35:59;;;;;;;12.77;5.60;;;;;;;;;;5073744;28;20025;-64
2022/01/20 03:38:25;;;;;;;10.45;5.38;;;;;;;;;;5073421;28;20070;-67
2022/01/20 03:40:50;;;;;;;11.57;5.78;;;;;;;;;;5073586;28;20082;-66
2022/01/20 03:43:17;;;;;;;10.98;5.75;;;;;;;;;;5073595;28;20035;-67
2022/01/20 03:45:46;;;;;;;12.23;6.40;;;;;;;;;;5073521;28;20033;-65
2022/01/20 03:48:12;;;;;;;12.27;6.43;;;;;;;;;;5073421;28;20107;-66
2022/01/20 03:53:23;;;;;;;14.10;6.40;;;;;;;;;;5073818;28;20116;-66
2022/01/20 03:55:49;;;;;;;11.70;6.07;;;;;;;;;;5073284;28;20052;-66
2022/01/20 03:58:17;;;;;;;12.18;5.97;;;;;;;;;;5072918;28;20479;-66
2022/01/20 04:00:43;;;;;;;12.35;6.70;;;;;;;;;;5073017;28;20028;-66
2022/01/20 04:03:10;;;;;;;13.00;6.95;;;;;;;;;;5073290;28;20060;-64
2022/01/20 04:05:41;;;;;;;11.32;5.95;;;;;;;;;;5073439;28;20024;-65
2022/01/20 04:08:09;;;;;;;11.85;6.00;;;;;;;;;;5073095;28;20111;-66
2022/01/20 04:10:35;;;;;;;10.63;5.80;;;;;;;;;;5073156;28;20052;-66
2022/01/20 04:13:00;;;;;;;11.02;5.60;;;;;;;;;;5072899;28;20048;-70
2022/01/20 04:15:36;;;;;;;12.32;5.38;;;;;;;;;;5072924;28;20099;-66
2022/01/20 04:18:02;;;;;;;9.40;4.93;;;;;;;;;;5072468;28;20049;-65
2022/01/20 04:20:27;;;;;;;11.88;5.68;;;;;;;;;;5073103;28;20041;-70
2022/01/20 04:22:53;;;;;;;13.02;5.00;;;;;;;;;;5072771;28;20518;-67
2022/01/20 04:25:18;;;;;;;9.52;4.97;;;;;;;;;;5072867;28;20048;-64
2022/01/20 04:27:44;;;;;;;9.88;4.93;;;;;;;;;;5072776;28;20111;-64
2022/01/20 04:30:09;;;;;;;10.95;5.15;;;;;;;;;;5072522;28;20071;-64
2022/01/20 04:32:35;;;;;;;12.10;5.28;;;;;;;;;;5072588;28;20056;-65
2022/01/20 04:35:00;;;;;;;9.50;5.03;;;;;;;;;;5072556;28;20500;-64
2022/01/20 04:37:26;;;;;;;12.43;5.45;;;;;;;;;;5072474;28;20579;-65
2022/01/20 04:39:51;;;;;;;11.23;4.63;;;;;;;;;;5072598;28;20039;-66
2022/01/20 04:42:19;;;;;;;9.23;5.03;;;;;;;;;;5072580;28;20033;-65
2022/01/20 04:44:53;;;;;;;12.25;5.13;;;;;;;;;;5072447;28;20384;-65
2022/01/20 04:58:06;;;;;;;10.40;5.10;;;;;;;;;;5072255;28;20610;-65
2022/01/20 05:00:31;;;;;;;8.65;5.30;;;;;;;;;;5072053;28;20468;-65
2022/01/20 05:02:57;;;;;;;9.05;4.78;;;;;;;;;;5072068;28;20038;-66
2022/01/20 05:05:22;;;;;;;8.18;4.78;;;;;;;;;;5072131;28;20056;-65
2022/01/20 05:07:48;;;;;;;10.07;4.65;;;;;;;;;;5071824;28;20056;-68
2022/01/20 05:10:14;;;;;;;10.52;5.15;;;;;;;;;;5072073;28;20078;-66
2022/01/20 05:13:22;;;;;;;11.38;5.25;;;;;;;;;;5072257;28;20044;-67
2022/01/20 05:15:33;;;;;;;11.75;5.07;;;;;;;;;;5068748;28;20094;-70
2022/01/20 05:17:59;;;;;;;10.70;5.28;;;;;;;;;;5071516;28;20458;-65
2022/01/20 05:20:25;;;;;;;11.63;5.28;;;;;;;;;;5071625;28;20470;-66
2022/01/20 05:22:50;;;;;;;9.23;4.90;;;;;;;;;;5071662;28;20576;-66
2022/01/20 05:25:16;;;;;;;10.50;4.88;;;;;;;;;;5071755;28;20021;-66
2022/01/20 05:27:41;;;;;;;11.02;5.18;;;;;;;;;;5071255;28;20024;-68
2022/01/20 05:30:08;;;;;;;9.88;4.93;;;;;;;;;;5071696;28;20017;-66
2022/01/20 05:32:33;;;;;;;11.02;5.22;;;;;;;;;;5071822;28;20025;-68
2022/01/20 05:34:58;;;;;;;8.80;4.85;;;;;;;;;;5071601;28;20044;-69
2022/01/20 05:37:24;;;;;;;11.52;4.82;;;;;;;;;;5071100;28;20020;-69
2022/01/20 05:39:50;;;;;;;9.05;5.38;;;;;;;;;;5071370;28;20036;-69
2022/01/20 05:42:15;;;;;;;9.95;5.07;;;;;;;;;;5071354;28;20518;-69
2022/01/20 05:44:42;;;;;;;9.98;4.85;;;;;;;;;;5071279;28;20027;-69
2022/01/20 05:47:11;;;;;;;9.88;5.15;;;;;;;;;;5070511;28;20667;-67
2022/01/20 05:49:37;;;;;;;9.60;5.00;;;;;;;;;;5071368;28;20472;-67
2022/01/20 05:52:03;;;;;;;8.77;4.93;;;;;;;;;;5071244;28;20031;-68
2022/01/20 05:54:29;;;;;;;10.48;4.93;;;;;;;;;;5071085;28;20024;-65
2022/01/20 05:56:55;;;;;;;9.38;5.07;;;;;;;;;;5070992;28;20032;-67
2022/01/20 05:59:21;;;;;;;9.15;4.60;;;;;;;;;;5070650;28;20480;-68
2022/01/20 06:01:52;;;;;;;11.98;4.68;;;;;;;;;;5071083;28;20056;-67
2022/01/20 06:04:18;;;;;;;11.82;5.18;;;;;;;;;;5071078;28;20025;-68
2022/01/20 06:06:44;;;;;;;9.98;4.63;;;;;;;;;;5071071;28;20024;-67
2022/01/20 06:09:09;;;;;;;9.80;4.90;;;;;;;;;;5070604;28;20032;-68
2022/01/20 06:11:35;;;;;;;8.13;4.38;;;;;;;;;;5070605;28;20032;-68
2022/01/20 06:14:01;;;;;;;8.27;4.60;;;;;;;;;;5070534;28;20032;-68
2022/01/20 06:16:26;;;;;;;8.93;4.70;;;;;;;;;;5070738;28;20029;-66
2022/01/20 06:18:52;;;;;;;9.77;4.50;;;;;;;;;;5070027;28;20106;-66
2022/01/20 06:21:17;;;;;;;7.90;4.28;;;;;;;;;;5070637;28;20033;-65
2022/01/20 06:23:43;;;;;;;10.00;4.30;;;;;;;;;;5070563;28;20024;-70
2022/01/20 06:26:09;;;;;;;9.63;4.72;;;;;;;;;;5070518;28;20035;-67
2022/01/20 06:28:37;;;;;;;8.07;4.32;;;;;;;;;;5070098;28;20029;-67
2022/01/20 06:31:03;;;;;;;10.80;4.35;;;;;;;;;;5070333;28;20013;-68
2022/01/20 06:33:28;;;;;;;7.03;4.28;;;;;;;;;;5070414;28;20027;-65
2022/01/20 06:35:54;;;;;;;8.82;4.43;;;;;;;;;;5070222;28;20017;-68
2022/01/20 06:38:19;;;;;;;9.15;4.25;;;;;;;;;;5070016;28;20535;-66
2022/01/20 06:40:45;;;;;;;11.98;4.20;;;;;;;;;;5070179;28;20036;-66
2022/01/20 06:43:11;;;;;;;9.85;4.05;;;;;;;;;;5070317;28;20020;-68
2022/01/20 06:45:36;;;;;;;15.15;4.78;;;;;;;;;;5070073;28;20102;-69
2022/01/20 06:48:03;;;;;;;10.73;4.82;;;;;;;;;;5069724;28;20633;-66
2022/01/20 06:50:28;;;;;;;13.07;4.93;;;;;;;;;;5070034;28;20026;-68
2022/01/20 06:52:54;;;;;;;9.80;4.93;;;;;;;;;;5070213;28;20021;-67
2022/01/20 06:55:20;;;;;;;10.30;5.32;;;;;;;;;;5070169;28;20064;-67
2022/01/20 06:57:46;;;;;;;10.93;5.10;;;;;;;;;;5069897;28;20060;-67
2022/01/20 07:00:15;;;;;;;10.88;5.45;;;;;;;;;;5069158;28;20074;-68
2022/01/20 07:02:42;;;;;;;8.95;4.78;;;;;;;;;;5070120;28;20031;-67
2022/01/20 07:05:12;;;;;;;10.73;5.13;;;;;;;;;;5069915;28;20036;-68
2022/01/20 07:07:38;;;;;;;14.88;6.07;;;;;;;;;;5069872;28;20016;-68
2022/01/20 07:10:04;;;;;;;12.20;5.28;;;;;;;;;;5069725;28;20040;-65
2022/01/20 07:12:30;;;;;;;12.80;4.97;;;;;;;;;;5069854;28;20020;-64
2022/01/20 07:14:55;;;;;;;14.60;5.75;;;;;;;;;;5069890;28;20035;-69
2022/01/20 07:17:21;;;;;;;16.42;5.20;;;;;;;;;;5068415;28;20072;-66
2022/01/20 07:19:46;;;;;;;14.05;5.57;;;;;;;;;;5069744;28;20028;-74
2022/01/20 07:22:12;;;;;;;9.23;4.43;;;;;;;;;;5069723;28;20078;-64
2022/01/20 07:24:37;;;;;;;8.85;4.72;;;;;;;;;;5069464;28;20090;-72
2022/01/20 07:27:03;;;;;;;14.73;6.13;;;;;;;;;;5069872;28;20021;-68
2022/01/20 07:29:31;;;;;;;12.50;5.50;;;;;;;;;;5069660;28;20162;-72
2022/01/20 07:31:58;;;;;;;11.40;5.97;;;;;;;;;;5069491;28;20016;-72
2022/01/20 07:34:24;;;;;;;11.90;5.63;;;;;;;;;;5069624;28;20361;-71
2022/01/20 07:36:49;;;;;;;13.38;5.70;;;;;;;;;;5069584;28;20103;-64
2022/01/20 07:39:15;;;;;;;12.90;6.57;;;;;;;;;;5069349;28;20031;-76
2022/01/20 07:41:40;;;;;;;18.30;6.53;;;;;;;;;;5069607;28;20086;-66
2022/01/20 07:44:06;;;;;;;13.75;6.07;;;;;;;;;;5068338;28;20036;-72
2022/01/20 07:46:31;;;;;;;13.77;6.10;;;;;;;;;;5069804;28;20029;-66
2022/01/20 07:48:56;;;;;;;13.77;6.03;;;;;;;;;;5069451;28;20457;-67
2022/01/20 07:51:22;;;;;;;12.15;5.38;;;;;;;;;;5069544;28;20499;-69
2022/01/20 07:53:47;;;;;;;14.25;5.35;;;;;;;;;;5069528;28;20029;-75
2022/01/20 07:56:13;;;;;;;9.52;5.25;;;;;;;;;;5069318;28;20032;-70
2022/01/20 07:58:39;;;;;;;12.93;4.95;;;;;;;;;;5069367;28;20067;-72
2022/01/20 08:01:05;;;;;;;14.07;5.78;;;;;;;;;;5069352;28;20036;-72
2022/01/20 08:03:31;;;;;;;12.38;5.20;;;;;;;;;;5069625;28;20025;-74
2022/01/20 08:05:56;;;;;;;12.13;5.53;;;;;;;;;;5069441;28;20027;-71
2022/01/20 08:08:22;;;;;;;10.40;5.57;;;;;;;;;;5069185;28;20025;-68
2022/01/20 08:10:48;;;;;;;11.77;5.45;;;;;;;;;;5071056;28;20520;-67
2022/01/20 08:13:13;;;;;;;12.38;5.20;;;;;;;;;;5072872;28;20052;-74
2022/01/20 08:15:39;;;;;;;9.77;4.85;;;;;;;;;;5072919;28;20021;-66
2022/01/20 08:18:06;;;;;;;12.18;4.88;;;;;;;;;;5072869;28;20041;-70
2022/01/20 08:20:33;;;;;;;12.90;5.68;;;;;;;;;;5072954;28;20040;-64
2022/01/20 08:22:59;;;;;;;13.85;5.50;;;;;;;;;;5072743;28;20385;-65
2022/01/20 08:25:26;;;;;;;11.07;5.38;;;;;;;;;;5072741;28;20487;-64
2022/01/20 08:27:52;;;;;;;10.70;5.80;;;;;;;;;;5072757;28;20036;-65
2022/01/20 08:30:21;;;;;;;13.68;5.30;;;;;;;;;;5072413;28;20059;-65
2022/01/20 08:32:47;;;;;;;11.15;5.88;;;;;;;;;;5072593;28;20047;-66
2022/01/20 08:35:13;;;;;;;15.18;6.85;;;;;;;;;;5072773;28;20016;-66
2022/01/20 08:37:43;;;;;;;12.80;6.18;;;;;;;;;;5072703;28;20059;-66
2022/01/20 08:40:13;;;;;;;13.50;6.28;;;;;;;;;;5072414;28;20021;-66
2022/01/20 08:42:44;;;;;;;14.25;5.93;;;;;;;;;;5072725;28;20023;-65
2022/01/20 08:45:11;;;;;;;12.57;5.50;;;;;;;;;;5072469;28;20016;-64
2022/01/20 08:47:37;;;;;;;18.40;7.18;;;;;;;;;;5072277;28;20499;-65
2022/01/20 08:50:05;;;;;;;12.98;5.72;;;;;;;;;;5072336;28;20024;-65
2022/01/20 08:52:31;;;;;;;15.70;6.20;;;;;;;;;;5072490;28;20012;-66
2022/01/20 08:54:58;;;;;;;12.18;6.35;;;;;;;;;;5072509;28;20025;-64
2022/01/20 08:57:25;;;;;;;13.15;5.75;;;;;;;;;;5072468;28;20044;-66
2022/01/20 08:59:51;;;;;;;10.95;5.90;;;;;;;;;;5071845;28;20430;-66
2022/01/20 09:02:18;;;;;;;13.43;5.72;;;;;;;;;;5072060;28;20051;-65
2022/01/20 09:04:44;;;;;;;12.73;5.95;;;;;;;;;;5072085;28;20031;-64
2022/01/20 09:07:09;;;;;;;13.10;5.40;;;;;;;;;;5070650;28;20104;-65
2022/01/20 09:09:41;;;;;;;14.10;5.80;;;;;;;;;;5071754;28;20116;-66
2022/01/20 09:17:22;;;;;;;11.55;5.65;;;;;;;;;;5071869;28;19924;-65
2022/01/20 09:19:48;;;;;;;12.13;6.07;;;;;;;;;;5071597;28;20020;-67
2022/01/20 09:22:14;;;;;;;13.70;5.82;;;;;;;;;;5070641;28;20415;-70
2022/01/20 09:24:40;;;;;;;12.95;6.07;;;;;;;;;;5051482;28;20029;-72
2022/01/20 09:27:05;;;;;;;14.18;6.68;;;;;;;;;;5051691;28;20036;-68
2022/01/20 09:29:31;;;;;;;10.20;6.15;;;;;;;;;;5051310;28;20024;-67
2022/01/20 09:31:58;;;;;;;16.75;6.85;;;;;;;;;;5051633;28;20093;-73
2022/01/20 09:34:24;;;;;;;16.20;6.80;;;;;;;;;;5051506;28;20078;-66
2022/01/20 09:36:50;;;;;;;20.27;7.13;;;;;;;;;;5051580;28;20024;-71
2022/01/20 09:39:16;;;;;;;15.93;7.35;;;;;;;;;;5051138;28;20076;-70
2022/01/20 09:41:46;;;;;;;15.65;6.88;;;;;;;;;;5049496;28;20029;-73
2022/01/20 09:44:12;;;;;;;16.67;6.90;;;;;;;;;;5050173;28;20021;-64
2022/01/20 09:46:38;;;;;;;20.02;8.55;;;;;;;;;;5051364;28;20568;-64
2022/01/20 09:49:04;;;;;;;18.27;7.97;;;;;;;;;;5054426;28;20024;-60
2022/01/20 09:51:29;;;;;;;15.40;7.35;;;;;;;;;;5069527;28;20075;-60
2022/01/20 09:53:55;;;;;;;14.68;8.07;;;;;;;;;;5070835;28;20099;-60
2022/01/20 09:56:21;;;;;;;13.93;7.13;;;;;;;;;;5070942;28;20020;-62
2022/01/20 09:58:46;;;;;;;24.83;12.25;;;;;;;;;;5070735;28;20020;-60
2022/01/20 10:01:12;;;;;;;24.55;10.40;;;;;;;;;;5070712;28;20036;-59
2022/01/20 10:03:38;;;;;;;18.13;9.80;;;;;;;;;;5070902;28;20036;-60
2022/01/20 10:06:05;;;;;;;17.15;8.20;;;;;;;;;;5070608;28;20541;-60
2022/01/20 10:08:33;;;;;;;18.95;10.20;;;;;;;;;;5070672;28;20461;-59
2022/01/20 10:11:09;;;;;;;16.02;8.20;;;;;;;;;;5070436;28;20032;-60
2022/01/20 10:13:38;;;;;;;15.18;7.20;;;;;;;;;;5071025;28;20535;-66
2022/01/20 10:16:06;;;;;;;17.70;8.02;;;;;;;;;;5069432;28;20032;-64
2022/01/20 10:18:44;;;;;;;12.02;6.68;;;;;;;;;;5070375;28;20041;-64
2022/01/20 10:21:10;;;;;;;14.48;6.78;;;;;;;;;;5070342;28;20078;-64
2022/01/20 10:23:41;;;;;;;15.55;7.15;;;;;;;;;;5070367;28;20024;-64
2022/01/20 10:26:10;;;;;;;25.27;7.18;;;;;;;;;;5068945;28;20484;-66
2022/01/20 10:28:56;;;;;;;15.60;7.28;;;;;;;;;;5068459;28;20105;-64
2022/01/20 10:31:58;;;;;;;15.52;6.63;;;;;;;;;;5068411;28;20028;-66
2022/01/20 10:34:33;;;;;;;14.77;6.47;;;;;;;;;;5066145;28;20113;-64
2022/01/20 10:37:18;;;;;;;13.98;6.10;;;;;;;;;;5068693;28;20039;-66
2022/01/20 10:39:46;;;;;;;10.38;5.80;;;;;;;;;;5068229;28;20089;-65
2022/01/20 10:42:15;;;;;;;16.35;6.53;;;;;;;;;;5068513;28;20674;-64
2022/01/20 10:44:47;;;;;;;13.85;6.50;;;;;;;;;;5068305;28;20027;-66
2022/01/20 10:47:17;;;;;;;14.77;6.32;;;;;;;;;;5068276;28;20040;-65
2022/01/20 10:49:44;;;;;;;14.75;6.43;;;;;;;;;;5067977;28;20618;-68
2022/01/20 10:52:11;;;;;;;16.48;6.65;;;;;;;;;;5069297;28;20462;-68
2022/01/20 10:54:42;;;;;;;12.25;6.00;;;;;;;;;;5070000;28;20496;-68
2022/01/20 10:57:10;;;;;;;12.15;6.35;;;;;;;;;;5069998;28;20024;-66
2022/01/20 10:59:48;;;;;;;10.98;6.10;;;;;;;;;;5069728;28;20021;-66
2022/01/20 11:02:18;;;;;;;15.13;8.20;;;;;;;;;;5069662;28;20044;-66
2022/01/20 11:04:43;;;;;;;15.40;7.45;;;;;;;;;;5069865;28;20087;-67
2022/01/20 11:07:09;;;;;;;15.98;7.13;;;;;;;;;;5069904;28;20096;-66
2022/01/20 11:09:40;;;;;;;13.43;6.82;;;;;;;;;;5069760;28;20024;-67
2022/01/20 11:12:06;;;;;;;13.02;6.70;;;;;;;;;;5069901;28;20024;-66
2022/01/20 11:14:33;;;;;;;12.80;6.53;;;;;;;;;;5069654;28;20431;-70
2022/01/20 11:16:59;;;;;;;19.00;7.38;;;;;;;;;;5069487;28;20132;-67
2022/01/20 11:19:26;;;;;;;14.95;6.65;;;;;;;;;;5069563;28;20021;-67
2022/01/20 11:22:03;;;;;;;14.27;6.30;;;;;;;;;;5069535;28;20451;-68
2022/01/20 11:24:29;;;;;;;13.73;6.30;;;;;;;;;;5069672;28;20036;-66
2022/01/20 11:27:00;;;;;;;15.50;6.40;;;;;;;;;;5069537;28;20143;-66
2022/01/20 11:29:42;;;;;;;14.93;6.65;;;;;;;;;;5068240;28;20503;-67
2022/01/20 11:32:21;;;;;;;14.00;6.20;;;;;;;;;;5062468;28;20028;-66
2022/01/20 11:34:55;;;;;;;12.15;6.35;;;;;;;;;;5069369;28;20032;-67
2022/01/20 11:37:23;;;;;;;18.33;6.68;;;;;;;;;;5069197;28;20016;-66
2022/01/20 11:39:51;;;;;;;15.93;6.43;;;;;;;;;;5069255;28;20484;-66
2022/01/20 11:42:25;;;;;;;15.23;6.50;;;;;;;;;;5068104;28;20052;-66
2022/01/20 11:44:51;;;;;;;12.55;6.28;;;;;;;;;;5069493;28;20028;-63
2022/01/20 11:47:17;;;;;;;14.80;7.53;;;;;;;;;;5073288;28;20495;-66
2022/01/20 11:49:43;;;;;;;15.82;7.22;;;;;;;;;;5071100;28;20534;-73
2022/01/20 11:52:09;;;;;;;13.43;7.10;;;;;;;;;;5070463;28;20025;-71
2022/01/20 11:54:36;;;;;;;13.98;7.50;;;;;;;;;;5071017;28;20029;-72
2022/01/20 11:57:18;;;;;;;15.77;7.50;;;;;;;;;;5071471;28;20029;-72
2022/01/20 11:59:47;;;;;;;14.95;7.32;;;;;;;;;;5071131;28;20046;-73
2022/01/20 12:02:38;;;;;;;13.13;7.70;;;;;;;;;;5073066;28;20078;-72
2022/01/20 12:05:27;;;;;;;16.83;7.43;;;;;;;;;;5072989;28;20028;-72
2022/01/20 12:08:07;;;;;;;15.60;7.13;;;;;;;;;;5072994;28;20039;-68
2022/01/20 12:10:32;;;;;;;13.15;7.25;;;;;;;;;;5072716;28;20498;-72
2022/01/20 12:13:09;;;;;;;15.55;7.18;;;;;;;;;;5072660;28;20020;-70
2022/01/20 12:15:47;;;;;;;12.95;7.07;;;;;;;;;;5072621;28;20077;-69
2022/01/20 12:18:13;;;;;;;12.50;6.90;;;;;;;;;;5072740;28;20043;-73
2022/01/20 12:20:39;;;;;;;13.85;7.93;;;;;;;;;;5072542;28;20063;-70
2022/01/20 12:23:04;;;;;;;14.32;6.97;;;;;;;;;;5072683;28;20580;-72
2022/01/20 12:25:30;;;;;;;12.75;7.13;;;;;;;;;;5072542;28;20017;-72
2022/01/20 12:28:11;;;;;;;12.48;7.30;;;;;;;;;;5072426;28;20055;-71
2022/01/20 12:30:47;;;;;;;15.77;7.22;;;;;;;;;;5071024;28;20081;-67
2022/01/20 12:33:17;;;;;;;13.77;7.28;;;;;;;;;;5066955;28;20020;-67
2022/01/20 12:35:48;;;;;;;14.38;7.70;;;;;;;;;;5071200;28;20024;-67
2022/01/20 12:38:26;;;;;;;13.23;7.65;;;;;;;;;;5069479;28;20067;-66
2022/01/20 12:41:01;;;;;;;13.55;6.72;;;;;;;;;;5071675;28;20039;-66
2022/01/20 12:43:34;;;;;;;12.73;6.97;;;;;;;;;;5070019;28;20488;-67
2022/01/20 12:46:00;;;;;;;16.65;7.55;;;;;;;;;;5070784;28;20036;-65
2022/01/20 12:48:26;;;;;;;15.07;7.05;;;;;;;;;;5070803;28;20024;-66
2022/01/20 12:50:52;;;;;;;13.38;6.88;;;;;;;;;;5070783;28;20029;-67
2022/01/20 12:53:18;;;;;;;13.55;6.50;;;;;;;;;;5072342;28;20059;-66
2022/01/20 12:55:53;;;;;;;17.85;6.80;;;;;;;;;;5072287;28;20063;-67
2022/01/20 12:58:19;;;;;;;15.07;6.50;;;;;;;;;;5072267;28;20048;-67
2022/01/20 13:00:44;;;;;;;16.73;6.45;;;;;;;;;;5071756;28;20072;-67
2022/01/20 13:03:10;;;;;;;12.95;6.05;;;;;;;;;;5072105;28;20511;-67
2022/01/20 13:05:41;;;;;;;10.40;6.25;;;;;;;;;;5071993;28;20024;-67
2022/01/20 13:08:06;;;;;;;13.68;6.50;;;;;;;;;;5072032;28;20048;-69
2022/01/20 13:10:34;;;;;;;16.58;6.65;;;;;;;;;;5071814;28;20059;-70
2022/01/20 13:13:05;;;;;;;15.70;6.63;;;;;;;;;;5071858;28;20025;-67
2022/01/20 13:15:32;;;;;;;12.45;6.13;;;;;;;;;;5071723;28;20024;-68
2022/01/20 13:18:06;;;;;;;12.77;6.20;;;;;;;;;;5071461;28;20052;-68
2022/01/20 13:20:32;;;;;;;14.23;6.45;;;;;;;;;;5071360;28;20024;-67
2022/01/20 13:23:08;;;;;;;14.95;7.28;;;;;;;;;;5071330;28;20074;-68
2022/01/20 13:25:39;;;;;;;14.48;6.35;;;;;;;;;;5071777;28;20077;-68
2022/01/20 13:28:07;;;;;;;17.33;6.80;;;;;;;;;;5071447;28;20564;-67
2022/01/20 13:30:36;;;;;;;14.65;6.18;;;;;;;;;;5071385;28;20553;-68
2022/01/20 13:33:16;;;;;;;21.58;7.72;;;;;;;;;;5073330;28;20021;-68
2022/01/20 13:35:44;;;;;;;15.57;7.05;;;;;;;;;;5067308;28;20574;-69
2022/01/20 13:38:10;;;;;;;12.70;6.35;;;;;;;;;;5070497;28;20407;-67
2022/01/20 13:40:38;;;;;;;14.57;6.35;;;;;;;;;;5071054;28;20675;-66
2022/01/20 13:45:59;;;;;;;15.52;6.22;;;;;;;;;;5071174;28;20125;-67
2022/01/20 13:48:27;;;;;;;13.93;6.30;;;;;;;;;;5071285;28;20039;-65
2022/01/20 13:50:56;;;;;;;15.93;6.82;;;;;;;;;;5071108;28;20028;-64
2022/01/20 13:53:26;;;;;;;14.27;6.60;;;;;;;;;;5070029;28;20036;-64
2022/01/20 13:55:52;;;;;;;14.48;6.45;;;;;;;;;;5068823;28;20029;-64
2022/01/20 13:58:21;;;;;;;11.05;6.05;;;;;;;;;;5071078;28;20040;-63
2022/01/20 14:00:47;;;;;;;11.70;6.05;;;;;;;;;;5069169;28;20048;-64
2022/01/20 14:03:12;;;;;;;12.57;6.10;;;;;;;;;;5070878;28;20143;-64
2022/01/20 14:05:38;;;;;;;20.85;6.55;;;;;;;;;;5070847;28;20065;-64
2022/01/20 14:08:04;;;;;;;11.98;6.38;;;;;;;;;;5070339;28;20028;-64
2022/01/20 14:10:31;;;;;;;8.82;5.50;;;;;;;;;;5070450;28;20036;-66
2022/01/20 14:12:57;;;;;;;12.88;5.90;;;;;;;;;;5070946;28;20486;-65
2022/01/20 14:15:26;;;;;;;13.98;6.28;;;;;;;;;;5070519;28;20074;-65
2022/01/20 14:17:55;;;;;;;14.13;5.88;;;;;;;;;;5070586;28;20036;-65
2022/01/20 14:20:27;;;;;;;15.02;5.93;;;;;;;;;;5070551;28;20041;-65
2022/01/20 14:22:53;;;;;;;13.23;5.78;;;;;;;;;;5070487;28;20028;-65
2022/01/20 14:25:21;;;;;;;15.77;5.78;;;;;;;;;;5070468;28;20020;-66
2022/01/20 14:27:47;;;;;;;13.35;5.38;;;;;;;;;;5070154;28;20122;-65
2022/01/20 14:30:13;;;;;;;12.98;5.60;;;;;;;;;;5070458;28;20058;-64
2022/01/20 14:32:40;;;;;;;13.25;6.00;;;;;;;;;;5070222;28;20086;-67
2022/01/20 14:35:06;;;;;;;15.35;6.10;;;;;;;;;;5069530;28;20032;-64
2022/01/20 14:37:37;;;;;;;17.55;5.40;;;;;;;;;;5068432;28;20416;-64
2022/01/20 14:40:16;;;;;;;10.63;5.47;;;;;;;;;;5068902;28;20033;-66
2022/01/20 14:42:42;;;;;;;10.90;5.13;;;;;;;;;;5070129;28;20093;-64
2022/01/20 14:45:14;;;;;;;11.73;5.35;;;;;;;;;;5069673;28;20024;-64
2022/01/20 14:47:41;;;;;;;14.13;5.07;;;;;;;;;;5070167;28;20044;-63
2022/01/20 14:50:07;;;;;;;11.90;5.28;;;;;;;;;;5070058;28;20028;-64
2022/01/20 14:52:33;;;;;;;13.93;5.38;;;;;;;;;;5070090;28;20035;-65
2022/01/20 14:55:00;;;;;;;14.38;5.75;;;;;;;;;;5069977;28;20033;-65
2022/01/20 14:57:26;;;;;;;15.70;5.38;;;;;;;;;;5070075;28;20024;-66
2022/01/20 14:59:52;;;;;;;14.55;5.15;;;;;;;;;;5068830;28;20027;-66
2022/01/20 15:02:18;;;;;;;11.00;5.10;;;;;;;;;;5069823;28;20036;-65
2022/01/20 15:04:44;;;;;;;14.68;6.97;;;;;;;;;;5069951;28;20032;-65
2022/01/20 15:07:10;;;;;;;17.55;7.65;;;;;;;;;;5069699;28;20016;-63
2022/01/20 15:09:36;;;;;;;15.98;7.18;;;;;;;;;;5070029;28;20048;-64
2022/01/20 15:12:02;;;;;;;10.23;5.47;;;;;;;;;;5069639;28;20032;-64
2022/01/20 15:14:28;;;;;;;15.18;5.55;;;;;;;;;;5069350;28;20035;-65
2022/01/20 15:16:53;;;;;;;14.13;5.22;;;;;;;;;;5067840;28;20047;-65
2022/01/20 15:19:19;;;;;;;12.60;6.18;;;;;;;;;;5068727;28;20021;-65
2022/01/20 15:21:45;;;;;;;24.73;9.40;;;;;;;;;;5068820;28;20032;-64
2022/01/20 15:24:12;;;;;;;15.80;7.18;;;;;;;;;;5069820;28;20025;-68
2022/01/20 15:26:38;;;;;;;16.65;6.60;;;;;;;;;;5069684;28;20119;-66
2022/01/20 15:29:04;;;;;;;14.65;6.65;;;;;;;;;;5069306;28;20033;-66
2022/01/20 15:31:36;;;;;;;11.18;5.70;;;;;;;;;;5069176;28;20024;-66
2022/01/20 15:34:05;;;;;;;11.52;5.25;;;;;;;;;;5069328;28;20028;-65
2022/01/20 15:36:31;;;;;;;14.90;6.78;;;;;;;;;;5069430;28;20082;-65
2022/01/20 15:38:59;;;;;;;14.85;8.35;;;;;;;;;;5069426;28;20033;-65
2022/01/20 15:41:26;;;;;;;13.43;6.47;;;;;;;;;;5069329;28;20127;-65
2022/01/20 15:43:51;;;;;;;14.10;6.50;;;;;;;;;;5068062;28;20472;-66
2022/01/20 15:46:16;;;;;;;13.02;6.43;;;;;;;;;;5069163;28;20031;-64
2022/01/20 15:48:42;;;;;;;22.65;9.55;;;;;;;;;;5069361;28;20511;-65
2022/01/20 15:51:07;;;;;;;23.60;10.75;;;;;;;;;;5069073;28;20020;-65